Time;durP1;ratioP1;P1;durP2;ratioP2;P2;SDS_P1;SDS_P2;PMS_P1;PMS_P2;Temp;Humidity;BMP_temperature;BMP_pressure;BME280_temperature;BME280_humidity;BME280_pressure;Samples;Min_cycle;Max_cycle;Signal;HPM_P1;HPM_P2
2021/12/19 00:01:00;;;;;;;;;52.75;45.75;;;;;5.38;64.43;100376.53;5012210;28;8898;-70
2021/12/19 00:03:49;;;;;;;;;65.25;46.50;;;;;5.47;64.26;100378.56;5043665;28;8869;-69
2021/12/19 00:09:05;;;;;;;;;55.50;47.50;;;;;5.12;65.36;100375.63;5007272;28;8934;-69
2021/12/19 00:11:34;;;;;;;;;58.00;46.25;;;;;5.26;65.14;100370.94;4992273;28;8857;-68
2021/12/19 00:14:05;;;;;;;;;57.25;49.75;;;;;5.28;65.17;100361.53;4992632;28;8845;-69
2021/12/19 00:16:34;;;;;;;;;63.50;49.25;;;;;5.29;64.48;100363.28;4992026;28;8884;-69
2021/12/19 00:19:04;;;;;;;;;65.00;50.75;;;;;5.34;64.04;100348.81;4992402;28;8845;-69
2021/12/19 00:21:33;;;;;;;;;62.50;50.50;;;;;5.26;64.04;100352.84;4991945;28;8912;-69
2021/12/19 00:24:01;;;;;;;;;61.50;50.50;;;;;5.40;63.76;100350.72;4974010;28;8883;-67
2021/12/19 00:26:30;;;;;;;;;66.25;54.00;;;;;5.26;63.82;100355.44;4992004;28;8872;-67
2021/12/19 00:29:00;;;;;;;;;67.00;55.00;;;;;5.30;63.34;100353.84;4992006;28;8880;-68
2021/12/19 00:31:30;;;;;;;;;50.00;39.00;;;;;5.18;63.07;100343.94;4992225;28;9015;-68
2021/12/19 00:33:59;;;;;;;;;54.50;45.75;;;;;5.08;63.61;100354.00;4991715;28;8861;-69
2021/12/19 00:36:29;;;;;;;;;64.00;53.25;;;;;4.99;62.81;100352.75;4989130;28;8876;-68
2021/12/19 00:38:58;;;;;;;;;62.50;50.50;;;;;5.01;64.04;100352.00;5001654;28;8846;-69
2021/12/19 00:41:27;;;;;;;;;63.75;51.00;;;;;5.18;63.85;100344.84;5011184;28;8850;-70
2021/12/19 00:43:57;;;;;;;;;59.50;49.50;;;;;5.22;63.12;100349.28;5011066;28;8857;-70
2021/12/19 00:46:27;;;;;;;;;55.25;46.50;;;;;5.16;63.42;100348.19;5042687;28;8850;-68
2021/12/19 00:48:57;;;;;;;;;57.25;47.00;;;;;5.23;63.38;100344.97;4993201;28;8896;-69
2021/12/19 00:51:27;;;;;;;;;54.75;46.00;;;;;4.98;63.59;100343.28;5011457;28;8854;-68
2021/12/19 00:53:56;;;;;;;;;49.75;45.50;;;;;5.16;63.40;100336.16;5011225;28;8850;-69
2021/12/19 00:56:26;;;;;;;;;57.75;47.75;;;;;5.26;63.37;100339.94;5010229;28;8888;-68
2021/12/19 00:58:55;;;;;;;;;62.00;49.25;;;;;5.25;62.95;100345.91;4990863;28;8883;-68
2021/12/19 01:01:24;;;;;;;;;51.75;41.75;;;;;5.25;62.75;100331.31;4991548;28;8914;-70
2021/12/19 01:03:53;;;;;;;;;56.25;43.25;;;;;5.34;62.55;100333.28;4991319;28;9633;-68
2021/12/19 01:06:23;;;;;;;;;51.75;44.75;;;;;5.39;62.71;100325.69;4991396;28;8983;-68
2021/12/19 01:08:52;;;;;;;;;52.75;44.50;;;;;5.44;61.96;100325.03;4991429;28;8948;-69
2021/12/19 01:11:20;;;;;;;;;46.25;42.00;;;;;5.39;62.06;100325.69;4991464;28;8885;-70
2021/12/19 01:13:49;;;;;;;;;40.75;35.00;;;;;5.32;61.56;100332.38;4991313;28;8875;-68
2021/12/19 01:16:19;;;;;;;;;48.25;43.00;;;;;5.21;62.14;100333.72;4991249;28;8875;-68
2021/12/19 01:18:47;;;;;;;;;54.00;45.25;;;;;5.17;63.04;100332.72;5022536;28;8872;-69
2021/12/19 01:21:16;;;;;;;;;48.25;44.00;;;;;5.31;62.55;100330.59;4991204;28;8918;-69
2021/12/19 01:23:46;;;;;;;;;48.00;40.50;;;;;5.00;62.72;100331.28;4990977;28;8852;-69
2021/12/19 01:26:15;;;;;;;;;49.50;42.25;;;;;5.13;63.18;100332.59;4988717;28;8856;-69
2021/12/19 01:28:43;;;;;;;;;44.67;38.67;;;;;5.25;62.81;100315.78;5022646;28;8864;-68
2021/12/19 01:31:13;;;;;;;;;50.25;41.00;;;;;4.77;63.55;100315.84;4991187;28;8883;-69
2021/12/19 01:33:41;;;;;;;;;38.00;38.00;;;;;4.92;62.92;100314.63;4990557;28;8984;-69
2021/12/19 01:36:11;;;;;;;;;46.50;41.75;;;;;4.94;63.75;100307.81;5022145;28;8867;-68
2021/12/19 01:38:40;;;;;;;;;49.75;42.00;;;;;5.06;62.98;100305.63;4990490;28;8837;-69
2021/12/19 01:41:10;;;;;;;;;47.00;41.75;;;;;5.08;62.63;100298.81;5022160;28;8880;-69
2021/12/19 01:43:39;;;;;;;;;42.50;38.50;;;;;5.06;62.85;100288.41;4990595;28;9664;-69
2021/12/19 01:46:08;;;;;;;;;43.00;38.40;;;;;5.17;62.76;100281.03;4990720;28;8899;-68
2021/12/19 01:48:36;;;;;;;;;39.50;33.00;;;;;5.17;62.18;100280.16;4990626;28;8872;-69
2021/12/19 01:51:06;;;;;;;;;45.25;42.25;;;;;5.22;62.18;100282.06;4990197;28;8849;-68
2021/12/19 01:53:35;;;;;;;;;36.75;30.25;;;;;5.21;62.58;100277.69;4990636;28;8845;-69
2021/12/19 01:56:06;;;;;;;;;42.00;36.25;;;;;4.77;62.76;100273.63;4988051;28;8856;-68
2021/12/19 01:58:37;;;;;;;;;34.40;33.00;;;;;5.08;62.92;100271.28;4990181;28;8841;-68
2021/12/19 02:01:06;;;;;;;;;54.50;43.50;;;;;5.17;62.57;100267.22;4990067;28;8877;-69
2021/12/19 02:03:36;;;;;;;;;43.50;38.00;;;;;4.98;62.53;100253.69;5021362;28;8833;-69
2021/12/19 02:06:05;;;;;;;;;24.75;20.00;;;;;5.00;62.29;100258.91;4990036;28;8927;-68
2021/12/19 02:08:34;;;;;;;;;39.20;36.60;;;;;5.02;62.53;100252.09;4989708;28;8864;-68
2021/12/19 02:11:03;;;;;;;;;37.00;33.00;;;;;5.12;62.44;100251.53;4989751;28;8959;-69
2021/12/19 02:13:31;;;;;;;;;27.80;25.00;;;;;4.96;62.66;100247.59;4989931;28;8861;-69
2021/12/19 02:16:01;;;;;;;;;37.60;35.00;;;;;4.96;62.53;100246.72;4989811;28;8837;-68
2021/12/19 02:18:30;;;;;;;;;35.00;31.80;;;;;5.10;62.37;100248.03;4990103;28;8853;-68
2021/12/19 02:21:00;;;;;;;;;37.80;29.20;;;;;4.89;63.00;100241.31;5021575;28;8868;-68
2021/12/19 02:23:30;;;;;;;;;32.20;29.20;;;;;5.02;62.28;100234.00;5004972;28;8878;-68
2021/12/19 02:25:58;;;;;;;;;32.40;29.40;;;;;5.12;62.13;100230.84;4989920;28;8853;-70
2021/12/19 02:28:27;;;;;;;;;30.40;28.40;;;;;5.17;62.00;100231.91;4989677;28;8853;-69
2021/12/19 02:30:56;;;;;;;;;35.80;29.80;;;;;5.26;62.14;100231.31;5021025;28;8863;-68
2021/12/19 02:33:27;;;;;;;;;24.80;22.20;;;;;5.33;61.43;100225.53;4989834;28;9011;-70
2021/12/19 02:36:03;;;;;;;;;43.00;31.00;;;;;5.12;62.43;100233.44;4989621;28;8971;-68
2021/12/19 02:49:41;;;;;;;;;30.40;27.40;;;;;5.35;62.03;100210.94;5020526;28;8915;-68
2021/12/19 02:52:16;;;;;;;;;30.00;27.60;;;;;5.25;62.00;100203.69;4989577;28;8864;-69
2021/12/19 02:54:46;;;;;;;;;30.40;24.40;;;;;5.09;62.30;100194.59;5003249;28;8865;-70
2021/12/19 02:57:14;;;;;;;;;26.00;25.80;;;;;5.16;61.96;100186.22;4989632;28;8903;-69
2021/12/19 02:59:43;;;;;;;;;33.80;27.80;;;;;5.20;62.59;100187.19;4988895;28;8880;-69
2021/12/19 03:02:12;;;;;;;;;31.20;30.20;;;;;4.97;63.09;100187.31;4987113;28;8877;-69
2021/12/19 03:04:53;;;;;;;;;26.40;24.00;;;;;4.98;62.72;100185.63;4989297;28;8891;-69
2021/12/19 03:07:24;;;;;;;;;21.80;21.20;;;;;4.95;63.12;100182.91;4989331;28;8860;-68
2021/12/19 03:10:07;;;;;;;;;32.40;28.20;;;;;4.89;63.15;100179.28;4988856;28;8864;-68
2021/12/19 03:12:50;;;;;;;;;31.60;26.40;;;;;5.04;62.68;100181.50;4989280;28;9627;-69
2021/12/19 03:18:05;;;;;;;;;28.00;23.60;;;;;5.03;62.92;100177.19;4988609;28;8891;-69
2021/12/19 03:20:35;;;;;;;;;29.00;21.80;;;;;5.17;62.75;100168.97;4988693;28;8895;-69
2021/12/19 03:23:05;;;;;;;;;29.20;28.80;;;;;5.21;62.55;100171.69;4989162;28;8894;-68
2021/12/19 03:25:36;;;;;;;;;29.60;27.60;;;;;5.23;62.05;100179.50;4989148;28;8849;-68
2021/12/19 03:28:07;;;;;;;;;27.00;26.80;;;;;5.28;62.10;100175.38;4988776;28;8868;-69
2021/12/19 03:30:37;;;;;;;;;23.20;22.20;;;;;5.22;62.56;100170.88;4988975;28;8861;-68
2021/12/19 03:33:06;;;;;;;;;31.80;27.80;;;;;5.23;62.85;100166.56;5002763;28;8877;-69
2021/12/19 03:35:35;;;;;;;;;29.20;27.60;;;;;5.15;63.50;100163.75;4989120;28;8912;-69
2021/12/19 03:38:07;;;;;;;;;31.80;25.80;;;;;5.06;63.01;100164.31;5003998;28;8842;-70
2021/12/19 03:40:40;;;;;;;;;23.20;21.80;;;;;5.02;63.27;100159.91;5008741;28;8866;-70
2021/12/19 03:43:12;;;;;;;;;28.60;25.20;;;;;4.80;63.78;100157.44;5008515;28;8861;-68
2021/12/19 03:45:42;;;;;;;;;27.80;22.40;;;;;4.67;64.53;100166.53;5008354;28;8850;-68
2021/12/19 03:48:13;;;;;;;;;27.40;25.60;;;;;4.91;64.30;100156.09;5022479;28;8986;-69
2021/12/19 03:50:44;;;;;;;;;27.60;25.60;;;;;5.07;63.96;100154.91;5005149;28;8868;-68
2021/12/19 03:53:16;;;;;;;;;20.60;19.00;;;;;5.10;63.44;100146.34;4988782;28;8882;-70
2021/12/19 03:55:46;;;;;;;;;29.80;28.40;;;;;5.17;63.35;100150.88;4988925;28;8860;-69
2021/12/19 03:58:16;;;;;;;;;33.60;26.40;;;;;5.08;63.79;100143.72;4988553;28;8845;-68
2021/12/19 04:00:45;;;;;;;;;30.00;23.60;;;;;5.13;63.59;100130.94;4988628;28;8934;-68
2021/12/19 04:03:18;;;;;;;;;32.80;27.00;;;;;5.09;63.62;100127.38;4988754;28;9047;-69
2021/12/19 04:05:48;;;;;;;;;31.60;29.20;;;;;5.18;63.75;100132.84;4988637;28;8931;-69
2021/12/19 04:08:18;;;;;;;;;32.20;28.40;;;;;5.13;63.69;100134.41;4988593;28;8856;-69
2021/12/19 04:10:50;;;;;;;;;34.20;29.80;;;;;4.97;64.58;100126.97;4988439;28;8860;-69
2021/12/19 04:13:20;;;;;;;;;33.80;31.00;;;;;4.89;64.75;100126.75;4988967;28;8849;-68
2021/12/19 04:15:49;;;;;;;;;32.20;29.40;;;;;4.72;65.87;100112.41;4988469;28;8899;-69
2021/12/19 04:18:19;;;;;;;;;29.60;29.20;;;;;4.54;66.88;100113.59;4988318;28;8872;-69
2021/12/19 04:20:48;;;;;;;;;32.00;27.60;;;;;4.14;68.16;100121.66;4988564;28;8939;-70
2021/12/19 04:23:17;;;;;;;;;28.80;23.00;;;;;4.43;67.20;100113.22;4988383;28;8918;-69
2021/12/19 04:25:46;;;;;;;;;29.20;27.60;;;;;4.41;68.16;100120.03;4988422;28;8860;-69
2021/12/19 04:28:16;;;;;;;;;30.20;25.20;;;;;4.51;67.84;100115.19;4988550;28;8856;-71
2021/12/19 04:30:45;;;;;;;;;29.00;27.60;;;;;4.05;69.25;100117.97;4988521;28;8853;-68
2021/12/19 04:33:14;;;;;;;;;29.80;27.60;;;;;4.24;69.44;100114.31;4990222;28;8871;-69
2021/12/19 04:35:45;;;;;;;;;30.20;25.00;;;;;4.26;68.96;100111.78;5003650;28;8885;-69
2021/12/19 04:55:46;;;;;;;;;28.40;25.60;;;;;4.74;67.75;100082.34;4930636;29;8844;-68
2021/12/19 05:01:31;;;;;;;;;32.40;30.00;;;;;4.81;67.81;100076.53;4893412;29;8871;-69
2021/12/19 05:04:11;;;;;;;;;23.00;18.20;;;;;4.94;67.82;100075.22;4892875;29;8855;-69
2021/12/19 05:14:02;;;;;;;;;27.00;25.20;;;;;4.98;67.17;100064.16;4865251;29;8875;-68
2021/12/19 05:15:14;;;;;;;;;29.40;27.60;;;;;5.02;67.22;100053.06;4892731;29;8863;-68
2021/12/19 05:17:44;;;;;;;;;18.20;18.00;;;;;4.98;67.89;100049.50;4877169;29;9026;-69
2021/12/19 05:20:16;;;;;;;;;109.25;92.50;;;;;5.07;67.82;100047.19;4892837;29;8864;-69
2021/12/19 05:22:48;;;;;;;;;74.50;58.50;;;;;5.16;67.14;100051.78;4892726;29;9939;-70
2021/12/19 05:25:18;;;;;;;;;56.75;47.00;;;;;5.17;66.82;100042.31;4892497;29;8925;-69
2021/12/19 05:27:54;;;;;;;;;49.50;41.50;;;;;4.78;67.57;100046.34;4912378;29;9619;-69
2021/12/19 05:30:24;;;;;;;;;31.00;29.40;;;;;4.92;67.92;100043.28;4911252;29;8865;-70
2021/12/19 05:32:55;;;;;;;;;27.40;24.80;;;;;4.97;67.61;100047.78;4960498;28;8866;-68
2021/12/19 05:35:41;;;;;;;;;28.80;25.20;;;;;4.82;67.98;100040.44;4979348;28;8876;-67
2021/12/19 05:46:44;;;;;;;;;27.60;23.60;;;;;4.74;68.07;100031.53;5007509;28;8858;-68
2021/12/19 05:49:14;;;;;;;;;26.20;23.00;;;;;4.81;68.25;100032.63;5007654;28;8846;-68
2021/12/19 05:51:42;;;;;;;;;29.40;29.40;;;;;4.99;68.11;100022.84;5008004;28;8846;-70
2021/12/19 05:54:11;;;;;;;;;37.40;30.60;;;;;4.95;67.53;100023.56;4990905;28;8850;-69
2021/12/19 05:56:41;;;;;;;;;30.60;27.60;;;;;5.03;67.10;100011.75;5007327;28;8959;-69
2021/12/19 05:59:10;;;;;;;;;24.20;21.60;;;;;5.12;67.01;100018.00;5007648;28;8877;-69
2021/12/19 06:01:39;;;;;;;;;39.60;35.80;;;;;4.97;66.91;100014.19;5006778;28;8885;-70
2021/12/19 06:04:08;;;;;;;;;32.00;30.60;;;;;5.07;66.74;100011.00;5007032;28;8861;-68
2021/12/19 06:06:38;;;;;;;;;28.00;26.40;;;;;4.93;67.17;100008.84;5007566;28;9028;-69
2021/12/19 06:09:07;;;;;;;;;35.60;30.60;;;;;5.09;66.99;100005.91;4991163;28;8854;-68
2021/12/19 06:11:36;;;;;;;;;33.00;28.00;;;;;5.12;66.89;100003.38;5007235;28;8867;-69
2021/12/19 06:14:05;;;;;;;;;31.80;29.20;;;;;5.16;66.46;100006.94;4988486;28;8882;-69
2021/12/19 06:16:33;;;;;;;;;101.67;80.67;;;;;5.17;66.65;100011.28;4989997;28;8915;-69
2021/12/19 06:19:02;;;;;;;;;80.25;65.25;;;;;5.31;66.24;99998.72;4990200;28;9374;-68
2021/12/19 06:21:30;;;;;;;;;39.75;35.50;;;;;5.19;66.36;100000.13;4971879;28;8963;-69
2021/12/19 06:24:00;;;;;;;;;51.50;46.25;;;;;4.99;66.38;99999.59;5003847;28;9626;-69
2021/12/19 06:26:32;;;;;;;;;56.50;45.25;;;;;4.87;67.35;99994.91;5021633;28;8856;-69
2021/12/19 06:29:00;;;;;;;;;32.00;27.40;;;;;4.80;67.19;99995.59;5004935;28;8951;-69
2021/12/19 06:31:29;;;;;;;;;29.20;25.60;;;;;4.96;67.46;99998.63;4987780;28;8881;-69
2021/12/19 06:33:58;;;;;;;;;29.60;26.40;;;;;4.87;66.97;100012.13;4989648;28;8959;-69
2021/12/19 06:36:27;;;;;;;;;27.40;24.60;;;;;5.07;67.15;100003.25;4989965;28;8963;-69
2021/12/19 06:38:56;;;;;;;;;33.40;30.40;;;;;4.96;66.73;100002.06;5021050;28;8888;-68
2021/12/19 06:41:26;;;;;;;;;27.00;22.60;;;;;5.19;66.67;99999.28;4971347;28;8883;-69
2021/12/19 06:43:55;;;;;;;;;34.80;28.60;;;;;5.32;65.88;99995.31;4989326;28;8868;-69
2021/12/19 06:46:24;;;;;;;;;32.60;30.60;;;;;5.10;66.04;99997.28;5020006;28;8892;-70
2021/12/19 06:48:53;;;;;;;;;33.80;30.80;;;;;5.22;66.37;99994.19;4989224;28;8841;-69
2021/12/19 06:51:22;;;;;;;;;33.00;28.80;;;;;5.10;66.10;99992.13;5021066;28;9002;-69
2021/12/19 06:53:51;;;;;;;;;32.40;28.60;;;;;5.05;65.67;99994.59;5021076;28;8865;-69
2021/12/19 06:56:20;;;;;;;;;28.60;25.80;;;;;5.29;65.98;99996.09;4989169;28;8896;-69
2021/12/19 06:58:50;;;;;;;;;38.20;30.20;;;;;5.27;66.33;99995.19;5020403;28;8888;-69
2021/12/19 07:01:19;;;;;;;;;38.80;29.00;;;;;5.33;65.79;99995.38;4988761;28;8864;-70
2021/12/19 07:03:47;;;;;;;;;31.60;27.60;;;;;5.33;65.79;99991.88;4989118;28;8873;-69
2021/12/19 07:06:19;;;;;;;;;35.40;28.60;;;;;5.41;65.91;99993.00;4987051;28;9682;-69
2021/12/19 07:08:48;;;;;;;;;34.00;28.40;;;;;5.52;65.65;99975.16;4988805;28;8868;-69
2021/12/19 07:11:16;;;;;;;;;33.20;29.40;;;;;5.36;66.48;99986.81;4989130;28;8880;-68
2021/12/19 07:13:45;;;;;;;;;80.75;61.75;;;;;5.52;65.65;99988.09;4989003;28;8856;-70
2021/12/19 07:16:16;;;;;;;;;74.75;57.25;;;;;5.65;65.15;99987.59;4970621;28;8926;-69
2021/12/19 07:18:44;;;;;;;;;48.75;42.50;;;;;5.70;64.85;99983.41;4988801;28;9018;-69
2021/12/19 07:21:15;;;;;;;;;56.00;45.00;;;;;5.62;64.87;99984.94;4988926;28;8849;-69
2021/12/19 07:23:43;;;;;;;;;41.40;35.40;;;;;5.62;65.14;99977.19;4988812;28;8999;-70
2021/12/19 07:26:12;;;;;;;;;40.60;34.20;;;;;5.49;65.35;99975.97;4989012;28;8945;-69
2021/12/19 07:28:44;;;;;;;;;110.25;95.75;;;;;5.66;65.65;99972.09;4988497;28;8902;-69
2021/12/19 07:31:13;;;;;;;;;142.25;129.50;;;;;5.82;65.50;99977.69;4988728;28;10726;-70
2021/12/19 07:33:44;;;;;;;;;82.25;64.50;;;;;5.66;64.76;99964.34;4988660;28;11623;-69
2021/12/19 07:36:12;;;;;;;;;32.20;30.20;;;;;5.58;64.67;99958.09;5020349;28;8903;-70
2021/12/19 07:38:51;;;;;;;;;37.50;35.25;;;;;5.70;64.48;99952.38;4988787;28;8861;-69
2021/12/19 07:41:20;;;;;;;;;36.25;31.50;;;;;5.77;64.76;99941.34;4988842;28;8848;-69
2021/12/19 07:43:49;;;;;;;;;35.20;33.00;;;;;5.84;64.15;99944.94;4988498;28;9582;-68
2021/12/19 07:46:18;;;;;;;;;41.40;34.20;;;;;5.57;65.37;99939.94;4988693;28;8852;-70
2021/12/19 07:48:49;;;;;;;;;63.75;52.00;;;;;5.52;65.50;99950.19;4988801;28;8861;-70
2021/12/19 07:51:17;;;;;;;;;63.25;52.25;;;;;5.51;65.28;99950.16;4988371;28;9629;-70
2021/12/19 07:53:46;;;;;;;;;47.25;42.00;;;;;5.39;65.58;99946.41;4988556;28;8880;-69
2021/12/19 07:56:15;;;;;;;;;65.50;54.25;;;;;5.54;65.73;99933.00;5020062;28;8946;-70
2021/12/19 07:58:43;;;;;;;;;31.20;27.60;;;;;5.56;65.25;99935.63;4988299;28;9551;-69
2021/12/19 08:01:12;;;;;;;;;33.20;29.80;;;;;5.61;65.65;99931.44;5019741;28;8872;-69
2021/12/19 08:03:40;;;;;;;;;76.75;61.00;;;;;5.63;65.78;99930.66;5002298;28;8864;-70
2021/12/19 08:06:11;;;;;;;;;42.00;36.75;;;;;5.68;65.17;99925.59;4988159;28;8861;-70
2021/12/19 08:08:46;;;;;;;;;72.50;59.25;;;;;5.95;66.22;99922.81;5022269;28;8880;-69
2021/12/19 08:14:00;;;;;;;;;33.20;25.80;;;;;5.80;64.10;99925.00;4992288;28;8860;-70
2021/12/19 08:16:29;;;;;;;;;44.00;39.00;;;;;5.96;64.26;99921.13;5023059;28;8864;-70
2021/12/19 08:18:58;;;;;;;;;33.80;30.60;;;;;5.55;64.80;99915.75;5023568;28;8853;-69
2021/12/19 08:21:28;;;;;;;;;39.60;36.80;;;;;5.62;65.06;99925.44;4992353;28;8993;-69
2021/12/19 08:24:00;;;;;;;;;34.80;34.60;;;;;5.57;65.08;99920.13;5023316;28;8865;-69
2021/12/19 08:26:30;;;;;;;;;35.20;30.40;;;;;5.72;65.09;99900.66;4992003;28;8978;-69
2021/12/19 08:29:04;;;;;;;;;33.00;25.00;;;;;5.62;64.68;99897.84;4991889;28;8899;-70
2021/12/19 08:31:32;;;;;;;;;31.00;30.40;;;;;5.65;64.55;99897.03;4991727;28;8864;-69
2021/12/19 08:34:01;;;;;;;;;37.20;33.00;;;;;5.63;64.96;99901.31;5023346;28;8905;-69
2021/12/19 08:36:32;;;;;;;;;39.20;34.20;;;;;5.83;64.40;99897.50;4991773;28;8849;-69
2021/12/19 08:39:00;;;;;;;;;36.20;34.40;;;;;5.79;64.71;99899.97;4991924;28;8883;-69
2021/12/19 08:41:29;;;;;;;;;34.60;33.40;;;;;5.83;64.68;99892.31;4989632;28;8869;-70
2021/12/19 08:43:58;;;;;;;;;29.80;28.20;;;;;5.79;63.86;99887.03;5005333;28;9013;-70
2021/12/19 08:46:28;;;;;;;;;62.75;50.25;;;;;5.70;64.98;99887.69;4991313;28;8876;-70
2021/12/19 08:48:57;;;;;;;;;34.40;32.40;;;;;5.71;64.67;99886.88;4991674;28;8982;-69
2021/12/19 08:51:27;;;;;;;;;32.80;29.60;;;;;5.66;64.53;99878.09;4991576;28;8853;-69
2021/12/19 08:53:57;;;;;;;;;30.20;30.20;;;;;5.57;65.02;99885.63;4991520;28;8860;-71
2021/12/19 08:56:26;;;;;;;;;36.60;34.60;;;;;5.77;64.86;99879.25;4990935;28;8852;-68
2021/12/19 08:58:55;;;;;;;;;41.20;37.00;;;;;5.84;65.11;99877.66;4991609;28;9114;-68
2021/12/19 09:01:24;;;;;;;;;31.60;30.40;;;;;5.91;64.75;99874.38;5022489;28;8878;-70
2021/12/19 09:03:53;;;;;;;;;82.75;64.50;;;;;6.13;64.18;99864.56;4990898;28;9589;-69
2021/12/19 09:06:22;;;;;;;;;71.00;57.25;;;;;5.99;64.07;99878.09;4991115;28;9002;-70
2021/12/19 09:08:50;;;;;;;;;39.50;35.50;;;;;5.88;64.19;99871.75;4991038;28;8853;-69
2021/12/19 09:11:21;;;;;;;;;94.25;75.75;;;;;6.13;64.04;99867.16;4991085;28;8856;-69
2021/12/19 09:13:50;;;;;;;;;63.75;52.00;;;;;5.95;64.30;99865.88;4990810;28;9632;-70
2021/12/19 09:16:18;;;;;;;;;13.20;12.40;;;;;5.95;63.87;99867.56;5004800;28;8872;-68
2021/12/19 09:19:08;;;;;;;;;49.50;41.00;;;;;6.18;63.63;99862.94;4990468;28;8864;-69
2021/12/19 09:21:36;;;;;;;;;90.00;68.25;;;;;6.23;63.95;99861.34;4988572;28;8857;-71
2021/12/19 09:24:05;;;;;;;;;60.50;48.25;;;;;6.32;63.29;99855.50;4990791;28;8849;-69
2021/12/19 09:26:36;;;;;;;;;75.25;58.50;;;;;6.53;63.30;99849.88;5021976;28;8893;-69
2021/12/19 09:29:04;;;;;;;;;55.75;44.75;;;;;6.64;62.41;99851.84;4990660;28;8860;-68
2021/12/19 09:31:33;;;;;;;;;30.40;26.40;;;;;6.64;62.06;99851.84;4990332;28;8871;-69
2021/12/19 09:34:01;;;;;;;;;28.40;25.20;;;;;6.46;62.68;99827.28;5005469;28;8853;-70
2021/12/19 09:36:30;;;;;;;;;25.00;23.80;;;;;6.58;62.34;99828.41;4990212;28;8884;-68
2021/12/19 09:38:59;;;;;;;;;28.40;24.40;;;;;6.67;62.38;99809.56;4990204;28;8868;-69
2021/12/19 09:41:33;;;;;;;;;43.75;40.75;;;;;6.63;64.79;99815.53;5021399;28;8876;-70
2021/12/19 09:44:09;;;;;;;;;35.20;32.00;;;;;6.82;62.92;99793.44;4990371;28;8861;-70
2021/12/19 09:46:39;;;;;;;;;24.40;22.80;;;;;6.79;61.79;99798.56;5021830;28;8869;-70
2021/12/19 09:49:09;;;;;;;;;22.00;20.40;;;;;6.90;61.63;99793.56;5003893;28;8880;-68
2021/12/19 09:51:39;;;;;;;;;37.80;31.20;;;;;7.06;62.42;99785.22;5021524;28;8877;-70
2021/12/19 09:54:09;;;;;;;;;76.25;57.75;;;;;6.85;61.50;99774.50;4989775;28;8845;-69
2021/12/19 09:56:38;;;;;;;;;87.75;68.50;;;;;7.06;61.52;99764.50;4989758;28;8887;-69
2021/12/19 09:59:11;;;;;;;;;80.75;63.50;;;;;7.08;61.54;99777.47;4989925;28;8861;-69
2021/12/19 10:01:40;;;;;;;;;45.50;37.00;;;;;7.02;61.02;99754.91;4989910;28;8880;-68
2021/12/19 10:04:34;;;;;;;;;28.60;25.20;;;;;6.68;61.87;99754.31;4989714;28;9704;-70
2021/12/19 10:07:13;;;;;;;;;29.40;24.60;;;;;6.29;62.31;99751.81;5020254;28;8868;-69
2021/12/19 10:09:55;;;;;;;;;26.80;24.20;;;;;6.47;63.26;99740.97;4989960;28;8868;-69
2021/12/19 10:12:38;;;;;;;;;29.40;26.40;;;;;6.48;63.44;99737.50;4989559;28;8860;-68
2021/12/19 10:15:12;;;;;;;;;28.20;25.60;;;;;5.95;64.65;99736.47;4973843;28;8861;-69
2021/12/19 10:17:41;;;;;;;;;28.00;22.80;;;;;6.09;64.52;99729.00;4989733;28;8849;-69
2021/12/19 10:20:12;;;;;;;;;25.20;25.20;;;;;6.17;63.92;99727.44;4989795;28;8856;-70
2021/12/19 10:22:43;;;;;;;;;22.80;22.80;;;;;5.85;65.58;99727.59;4989606;28;8852;-69
2021/12/19 10:25:18;;;;;;;;;27.60;25.00;;;;;6.25;64.88;99725.00;4989825;28;8872;-69
2021/12/19 10:27:50;;;;;;;;;29.40;29.40;;;;;5.91;65.12;99726.84;4989325;28;9082;-70
2021/12/19 10:30:24;;;;;;;;;30.60;26.80;;;;;6.05;65.36;99719.44;4988625;28;8982;-69
2021/12/19 10:32:59;;;;;;;;;30.40;25.60;;;;;6.26;64.54;99711.22;4989306;28;8922;-68
2021/12/19 10:35:30;;;;;;;;;30.20;30.20;;;;;6.56;63.84;99704.84;4989471;28;8872;-71
2021/12/19 10:38:01;;;;;;;;;32.00;29.60;;;;;6.77;63.59;99705.25;4989373;28;8911;-68
2021/12/19 10:40:31;;;;;;;;;31.60;24.00;;;;;7.02;63.56;99700.47;5020676;28;8864;-68
2021/12/19 10:43:03;;;;;;;;;32.50;32.50;;;;;7.17;62.35;99687.75;4989007;28;8881;-69
2021/12/19 10:45:45;;;;;;;;;42.00;33.00;;;;;6.79;62.02;99695.78;4989223;28;8864;-67
2021/12/19 10:48:31;;;;;;;;;44.75;40.25;;;;;6.49;63.93;99693.50;4988979;28;8841;-68
2021/12/19 10:51:03;;;;;;;;;41.50;37.25;;;;;6.97;64.20;99682.22;5020661;28;8872;-70
2021/12/19 10:53:35;;;;;;;;;36.25;34.50;;;;;7.20;61.83;99679.13;4989473;28;8848;-69
2021/12/19 10:56:08;;;;;;;;;39.00;33.00;;;;;6.82;63.34;99682.88;4989010;28;8889;-69
2021/12/19 10:58:47;;;;;;;;;41.25;34.50;;;;;6.52;64.17;99677.13;4989114;28;8864;-70
2021/12/19 11:01:25;;;;;;;;;34.40;32.80;;;;;6.15;65.69;99673.88;4988615;28;8903;-69
2021/12/19 11:03:59;;;;;;;;;31.80;31.40;;;;;5.94;66.03;99676.91;4988840;28;8884;-68
2021/12/19 11:06:35;;;;;;;;;35.00;29.40;;;;;5.82;67.11;99675.81;5019721;28;8887;-69
2021/12/19 11:09:10;;;;;;;;;34.00;32.75;;;;;5.71;67.69;99664.34;4988774;28;8864;-69
2021/12/19 11:11:47;;;;;;;;;26.80;26.60;;;;;5.83;67.89;99663.72;4988746;28;8853;-71
2021/12/19 11:14:18;;;;;;;;;31.00;24.20;;;;;6.20;67.29;99655.00;4988782;28;8857;-69
2021/12/19 11:16:50;;;;;;;;;25.40;20.00;;;;;6.48;65.50;99650.31;4988802;28;9685;-69
2021/12/19 11:19:19;;;;;;;;;23.00;22.40;;;;;5.85;67.54;99649.09;4988392;28;8867;-70
2021/12/19 11:22:08;;;;;;;;;32.60;28.00;;;;;5.98;68.26;99642.50;4988186;28;8852;-68
2021/12/19 11:24:37;;;;;;;;;28.80;24.40;;;;;6.09;67.58;99635.81;5019554;28;8864;-70
2021/12/19 11:27:08;;;;;;;;;27.00;25.40;;;;;6.28;67.63;99628.38;5001944;28;8857;-69
2021/12/19 11:29:37;;;;;;;;;25.80;24.00;;;;;6.61;66.98;99610.81;4988588;28;9470;-69
2021/12/19 11:32:09;;;;;;;;;22.80;19.60;;;;;6.68;66.01;99603.16;4988212;28;9021;-70
2021/12/19 11:34:57;;;;;;;;;30.00;26.20;;;;;6.41;67.03;99596.69;4988625;28;8840;-69
2021/12/19 11:37:28;;;;;;;;;20.00;18.00;;;;;6.51;66.87;99602.88;4988365;28;9003;-69
2021/12/19 11:39:58;;;;;;;;;23.40;23.00;;;;;6.63;66.82;99598.78;4988249;28;8889;-69
2021/12/19 11:42:32;;;;;;;;;24.00;23.60;;;;;6.90;65.85;99593.97;4990648;28;8845;-69
2021/12/19 11:45:20;;;;;;;;;14.40;12.40;;;;;6.78;66.27;99587.75;4991968;28;8849;-70
2021/12/19 11:47:55;;;;;;;;;27.80;25.20;;;;;6.33;67.96;99583.59;4992250;28;8993;-67
2021/12/19 11:50:28;;;;;;;;;25.40;22.00;;;;;6.24;68.66;99584.28;5023533;28;8942;-70
2021/12/19 11:52:59;;;;;;;;;29.40;25.40;;;;;6.12;68.71;99578.03;4992671;28;9585;-69
2021/12/19 11:55:34;;;;;;;;;23.00;21.00;;;;;6.28;68.86;99550.69;4992499;28;8845;-69
2021/12/19 11:58:42;;;;;;;;;29.00;25.00;;;;;6.46;68.14;99545.78;5023598;28;8849;-69
2021/12/19 12:01:13;;;;;;;;;21.00;18.60;;;;;6.60;67.55;99546.03;4992358;28;8857;-70
2021/12/19 12:03:52;;;;;;;;;26.00;23.00;;;;;6.75;65.86;99537.63;4992195;28;8857;-70
2021/12/19 12:06:24;;;;;;;;;23.40;20.00;;;;;6.83;64.73;99536.00;4991917;28;8865;-69
2021/12/19 12:09:23;;;;;;;;;27.60;21.20;;;;;6.97;62.68;99536.19;4991719;28;8868;-69
2021/12/19 12:12:31;;;;;;;;;18.60;15.00;;;;;7.07;62.54;99529.41;4941432;28;8856;-69
2021/12/19 12:15:05;;;;;;;;;17.00;16.60;;;;;7.21;61.62;99514.91;4989306;28;8962;-69
2021/12/19 12:17:46;;;;;;;;;21.80;17.40;;;;;7.19;61.42;99504.50;4972497;28;8896;-68
2021/12/19 12:20:20;;;;;;;;;23.60;20.60;;;;;6.85;62.33;99500.59;4988986;28;9673;-70
2021/12/19 12:23:05;;;;;;;;;12.20;10.00;;;;;6.78;62.57;99483.22;4961911;28;8859;-67
2021/12/19 12:25:40;;;;;;;;;19.20;18.20;;;;;6.95;61.94;99484.31;5024942;28;8843;-69
2021/12/19 12:28:19;;;;;;;;;15.40;15.40;;;;;6.75;59.87;99473.69;5008435;28;8871;-69
2021/12/19 12:30:50;;;;;;;;;19.20;18.80;;;;;7.03;60.83;99481.81;5008381;28;8852;-70
2021/12/19 12:33:27;;;;;;;;;22.00;18.80;;;;;7.28;60.87;99471.75;5008506;28;8836;-69
2021/12/19 12:35:57;;;;;;;;;18.20;16.80;;;;;7.15;57.79;99457.78;5007933;28;8844;-70
2021/12/19 12:38:27;;;;;;;;;16.60;14.40;;;;;7.14;55.95;99450.84;5008343;28;8859;-72
2021/12/19 12:40:59;;;;;;;;;18.20;17.00;;;;;7.29;57.73;99453.59;5008341;28;8852;-70
2021/12/19 12:43:32;;;;;;;;;16.20;13.60;;;;;7.27;57.20;99451.88;5008712;28;9542;-71